sensor_id;sensor_type;location;lat;lon;timestamp;P1;durP1;ratioP1;P2;durP2;ratioP2
58820;SDS011;70670;52.476;13.334;2023-06-22T00:00:40;10.32;;;7.95;;
58820;SDS011;70670;52.476;13.334;2023-06-22T00:03:27;12.50;;;8.23;;
58820;SDS011;70670;52.476;13.334;2023-06-22T00:05:53;11.90;;;8.63;;
58820;SDS011;70670;52.476;13.334;2023-06-22T00:08:19;10.98;;;8.35;;
58820;SDS011;70670;52.476;13.334;2023-06-22T00:10:45;15.00;;;8.52;;
58820;SDS011;70670;52.476;13.334;2023-06-22T00:13:11;8.90;;;7.97;;
58820;SDS011;70670;52.476;13.334;2023-06-22T00:15:38;9.70;;;7.75;;
58820;SDS011;70670;52.476;13.334;2023-06-22T00:18:06;10.27;;;8.25;;
58820;SDS011;70670;52.476;13.334;2023-06-22T00:20:32;8.77;;;7.75;;
58820;SDS011;70670;52.476;13.334;2023-06-22T00:23:01;9.35;;;8.10;;
58820;SDS011;70670;52.476;13.334;2023-06-22T00:25:31;13.70;;;9.20;;
58820;SDS011;70670;52.476;13.334;2023-06-22T00:27:57;9.65;;;8.27;;
58820;SDS011;70670;52.476;13.334;2023-06-22T00:30:23;13.70;;;8.48;;
58820;SDS011;70670;52.476;13.334;2023-06-22T00:32:48;12.27;;;8.15;;
58820;SDS011;70670;52.476;13.334;2023-06-22T00:35:14;9.73;;;8.00;;
58820;SDS011;70670;52.476;13.334;2023-06-22T00:37:39;8.68;;;7.68;;
58820;SDS011;70670;52.476;13.334;2023-06-22T00:40:08;9.60;;;8.55;;
58820;SDS011;70670;52.476;13.334;2023-06-22T00:42:36;10.25;;;8.57;;
58820;SDS011;70670;52.476;13.334;2023-06-22T00:45:03;8.80;;;7.90;;
58820;SDS011;70670;52.476;13.334;2023-06-22T00:47:29;10.10;;;8.35;;
58820;SDS011;70670;52.476;13.334;2023-06-22T00:49:54;9.10;;;8.20;;
58820;SDS011;70670;52.476;13.334;2023-06-22T00:52:21;10.77;;;7.90;;
58820;SDS011;70670;52.476;13.334;2023-06-22T00:54:52;10.65;;;8.73;;
58820;SDS011;70670;52.476;13.334;2023-06-22T00:57:18;9.10;;;8.23;;
58820;SDS011;70670;52.476;13.334;2023-06-22T00:59:45;10.50;;;8.80;;
58820;SDS011;70670;52.476;13.334;2023-06-22T01:02:13;13.80;;;8.77;;
58820;SDS011;70670;52.476;13.334;2023-06-22T01:04:39;11.07;;;9.27;;
58820;SDS011;70670;52.476;13.334;2023-06-22T01:07:18;10.00;;;9.00;;
58820;SDS011;70670;52.476;13.334;2023-06-22T01:10:05;11.48;;;8.57;;
58820;SDS011;70670;52.476;13.334;2023-06-22T01:12:34;9.90;;;7.90;;
58820;SDS011;70670;52.476;13.334;2023-06-22T01:15:08;9.80;;;8.45;;
58820;SDS011;70670;52.476;13.334;2023-06-22T01:17:37;9.38;;;8.48;;
58820;SDS011;70670;52.476;13.334;2023-06-22T01:20:06;9.30;;;8.35;;
58820;SDS011;70670;52.476;13.334;2023-06-22T01:25:36;11.68;;;8.80;;
58820;SDS011;70670;52.476;13.334;2023-06-22T01:28:24;10.85;;;9.52;;
58820;SDS011;70670;52.476;13.334;2023-06-22T01:31:03;9.63;;;8.55;;
58820;SDS011;70670;52.476;13.334;2023-06-22T01:33:35;10.05;;;8.75;;
58820;SDS011;70670;52.476;13.334;2023-06-22T01:36:03;11.73;;;9.35;;
58820;SDS011;70670;52.476;13.334;2023-06-22T01:38:29;11.23;;;9.50;;
58820;SDS011;70670;52.476;13.334;2023-06-22T01:40:57;11.27;;;9.07;;
58820;SDS011;70670;52.476;13.334;2023-06-22T01:43:23;11.23;;;9.43;;
58820;SDS011;70670;52.476;13.334;2023-06-22T01:45:51;10.00;;;8.80;;
58820;SDS011;70670;52.476;13.334;2023-06-22T01:48:17;10.82;;;9.55;;
58820;SDS011;70670;52.476;13.334;2023-06-22T01:50:44;16.45;;;10.07;;
58820;SDS011;70670;52.476;13.334;2023-06-22T01:53:10;13.55;;;9.32;;
58820;SDS011;70670;52.476;13.334;2023-06-22T01:55:36;10.85;;;9.70;;
58820;SDS011;70670;52.476;13.334;2023-06-22T01:58:01;11.20;;;10.10;;
58820;SDS011;70670;52.476;13.334;2023-06-22T02:00:28;12.18;;;9.70;;
58820;SDS011;70670;52.476;13.334;2023-06-22T02:02:58;11.07;;;9.82;;
58820;SDS011;70670;52.476;13.334;2023-06-22T02:05:31;11.60;;;10.25;;
58820;SDS011;70670;52.476;13.334;2023-06-22T02:08:07;13.13;;;10.35;;
58820;SDS011;70670;52.476;13.334;2023-06-22T02:10:35;12.93;;;11.63;;
58820;SDS011;70670;52.476;13.334;2023-06-22T02:13:04;14.97;;;11.20;;
58820;SDS011;70670;52.476;13.334;2023-06-22T02:15:33;13.65;;;11.93;;
58820;SDS011;70670;52.476;13.334;2023-06-22T02:17:59;15.63;;;13.23;;
58820;SDS011;70670;52.476;13.334;2023-06-22T02:20:25;14.82;;;13.30;;
58820;SDS011;70670;52.476;13.334;2023-06-22T02:22:50;17.15;;;13.40;;
58820;SDS011;70670;52.476;13.334;2023-06-22T02:25:16;18.35;;;13.60;;
58820;SDS011;70670;52.476;13.334;2023-06-22T02:27:41;21.48;;;15.52;;
58820;SDS011;70670;52.476;13.334;2023-06-22T02:30:08;16.40;;;13.68;;
58820;SDS011;70670;52.476;13.334;2023-06-22T02:35:02;16.33;;;14.43;;
58820;SDS011;70670;52.476;13.334;2023-06-22T02:37:31;16.15;;;14.45;;
58820;SDS011;70670;52.476;13.334;2023-06-22T02:39:57;17.73;;;14.32;;
58820;SDS011;70670;52.476;13.334;2023-06-22T02:42:23;15.88;;;14.27;;
58820;SDS011;70670;52.476;13.334;2023-06-22T02:44:49;14.27;;;12.75;;
58820;SDS011;70670;52.476;13.334;2023-06-22T02:47:14;17.40;;;13.05;;
58820;SDS011;70670;52.476;13.334;2023-06-22T02:49:41;17.85;;;14.25;;
58820;SDS011;70670;52.476;13.334;2023-06-22T02:52:07;18.13;;;14.07;;
58820;SDS011;70670;52.476;13.334;2023-06-22T02:54:32;19.27;;;14.13;;
58820;SDS011;70670;52.476;13.334;2023-06-22T02:56:59;17.63;;;13.35;;
58820;SDS011;70670;52.476;13.334;2023-06-22T03:01:53;19.48;;;13.95;;
58820;SDS011;70670;52.476;13.334;2023-06-22T03:04:19;19.75;;;12.95;;
58820;SDS011;70670;52.476;13.334;2023-06-22T03:06:44;17.55;;;12.93;;
58820;SDS011;70670;52.476;13.334;2023-06-22T03:09:16;22.80;;;13.27;;
58820;SDS011;70670;52.476;13.334;2023-06-22T03:11:42;14.70;;;13.02;;
58820;SDS011;70670;52.476;13.334;2023-06-22T03:14:08;17.02;;;13.77;;
58820;SDS011;70670;52.476;13.334;2023-06-22T03:16:33;19.63;;;13.63;;
58820;SDS011;70670;52.476;13.334;2023-06-22T03:18:59;15.90;;;13.02;;
58820;SDS011;70670;52.476;13.334;2023-06-22T03:21:27;17.48;;;14.57;;
58820;SDS011;70670;52.476;13.334;2023-06-22T03:23:53;15.73;;;13.27;;
58820;SDS011;70670;52.476;13.334;2023-06-22T03:26:18;18.67;;;13.68;;
58820;SDS011;70670;52.476;13.334;2023-06-22T03:28:44;14.52;;;12.35;;
58820;SDS011;70670;52.476;13.334;2023-06-22T03:31:10;13.98;;;12.48;;
58820;SDS011;70670;52.476;13.334;2023-06-22T03:33:36;15.95;;;12.05;;
58820;SDS011;70670;52.476;13.334;2023-06-22T03:36:01;14.85;;;12.52;;
58820;SDS011;70670;52.476;13.334;2023-06-22T03:38:28;14.10;;;11.25;;
58820;SDS011;70670;52.476;13.334;2023-06-22T03:40:53;14.95;;;12.55;;
58820;SDS011;70670;52.476;13.334;2023-06-22T03:43:19;18.13;;;12.77;;
58820;SDS011;70670;52.476;13.334;2023-06-22T03:45:44;12.30;;;11.10;;
58820;SDS011;70670;52.476;13.334;2023-06-22T03:48:13;16.98;;;11.90;;
58820;SDS011;70670;52.476;13.334;2023-06-22T03:50:38;14.90;;;11.10;;
58820;SDS011;70670;52.476;13.334;2023-06-22T03:53:04;15.60;;;11.55;;
58820;SDS011;70670;52.476;13.334;2023-06-22T03:55:30;12.35;;;10.18;;
58820;SDS011;70670;52.476;13.334;2023-06-22T03:57:55;18.60;;;11.00;;
58820;SDS011;70670;52.476;13.334;2023-06-22T04:00:22;17.33;;;11.60;;
58820;SDS011;70670;52.476;13.334;2023-06-22T04:02:48;16.73;;;12.00;;
58820;SDS011;70670;52.476;13.334;2023-06-22T04:05:14;15.60;;;12.55;;
58820;SDS011;70670;52.476;13.334;2023-06-22T04:07:40;14.52;;;11.35;;
58820;SDS011;70670;52.476;13.334;2023-06-22T04:10:05;13.90;;;11.93;;
58820;SDS011;70670;52.476;13.334;2023-06-22T04:12:32;11.75;;;10.65;;
58820;SDS011;70670;52.476;13.334;2023-06-22T04:14:57;17.20;;;11.40;;
58820;SDS011;70670;52.476;13.334;2023-06-22T04:17:23;12.65;;;10.48;;
58820;SDS011;70670;52.476;13.334;2023-06-22T04:19:50;13.52;;;10.82;;
58820;SDS011;70670;52.476;13.334;2023-06-22T04:22:16;12.30;;;11.10;;
58820;SDS011;70670;52.476;13.334;2023-06-22T04:24:42;13.93;;;9.75;;
58820;SDS011;70670;52.476;13.334;2023-06-22T04:27:07;13.60;;;9.63;;
58820;SDS011;70670;52.476;13.334;2023-06-22T04:29:33;11.65;;;9.77;;
58820;SDS011;70670;52.476;13.334;2023-06-22T04:31:59;11.70;;;8.70;;
58820;SDS011;70670;52.476;13.334;2023-06-22T04:36:53;14.68;;;9.00;;
58820;SDS011;70670;52.476;13.334;2023-06-22T04:39:19;12.00;;;8.40;;
58820;SDS011;70670;52.476;13.334;2023-06-22T04:41:45;11.30;;;9.13;;
58820;SDS011;70670;52.476;13.334;2023-06-22T04:44:13;10.50;;;9.38;;
58820;SDS011;70670;52.476;13.334;2023-06-22T04:49:19;13.80;;;9.75;;
58820;SDS011;70670;52.476;13.334;2023-06-22T04:51:46;10.32;;;8.60;;
58820;SDS011;70670;52.476;13.334;2023-06-22T04:54:12;12.02;;;8.43;;
58820;SDS011;70670;52.476;13.334;2023-06-22T04:56:37;11.07;;;7.90;;
58820;SDS011;70670;52.476;13.334;2023-06-22T04:59:06;13.73;;;7.68;;
58820;SDS011;70670;52.476;13.334;2023-06-22T05:01:32;14.07;;;7.68;;
58820;SDS011;70670;52.476;13.334;2023-06-22T05:03:58;18.83;;;7.43;;
58820;SDS011;70670;52.476;13.334;2023-06-22T05:06:26;10.05;;;7.90;;
58820;SDS011;70670;52.476;13.334;2023-06-22T05:08:56;17.00;;;7.35;;
58820;SDS011;70670;52.476;13.334;2023-06-22T05:11:28;9.18;;;7.40;;
58820;SDS011;70670;52.476;13.334;2023-06-22T05:13:54;11.05;;;7.47;;
58820;SDS011;70670;52.476;13.334;2023-06-22T05:16:20;13.45;;;6.47;;
58820;SDS011;70670;52.476;13.334;2023-06-22T05:18:50;13.65;;;6.78;;
58820;SDS011;70670;52.476;13.334;2023-06-22T05:21:17;9.10;;;7.63;;
58820;SDS011;70670;52.476;13.334;2023-06-22T05:23:43;7.75;;;6.57;;
58820;SDS011;70670;52.476;13.334;2023-06-22T05:26:08;10.80;;;6.95;;
58820;SDS011;70670;52.476;13.334;2023-06-22T05:28:35;9.82;;;6.85;;
58820;SDS011;70670;52.476;13.334;2023-06-22T05:31:01;12.88;;;7.55;;
58820;SDS011;70670;52.476;13.334;2023-06-22T05:33:26;10.70;;;7.15;;
58820;SDS011;70670;52.476;13.334;2023-06-22T05:35:52;11.00;;;7.80;;
58820;SDS011;70670;52.476;13.334;2023-06-22T05:38:17;13.20;;;6.88;;
58820;SDS011;70670;52.476;13.334;2023-06-22T05:40:43;10.32;;;6.00;;
58820;SDS011;70670;52.476;13.334;2023-06-22T05:43:09;11.20;;;6.60;;
58820;SDS011;70670;52.476;13.334;2023-06-22T05:45:34;10.57;;;5.93;;
58820;SDS011;70670;52.476;13.334;2023-06-22T05:48:00;18.55;;;6.93;;
58820;SDS011;70670;52.476;13.334;2023-06-22T05:50:26;8.02;;;6.35;;
58820;SDS011;70670;52.476;13.334;2023-06-22T05:52:52;15.98;;;7.03;;
58820;SDS011;70670;52.476;13.334;2023-06-22T05:55:18;10.60;;;7.03;;
58820;SDS011;70670;52.476;13.334;2023-06-22T05:57:44;11.60;;;7.00;;
58820;SDS011;70670;52.476;13.334;2023-06-22T06:00:10;11.88;;;6.53;;
58820;SDS011;70670;52.476;13.334;2023-06-22T06:02:37;11.85;;;7.57;;
58820;SDS011;70670;52.476;13.334;2023-06-22T06:05:11;9.48;;;6.32;;
58820;SDS011;70670;52.476;13.334;2023-06-22T06:07:39;12.05;;;6.50;;
58820;SDS011;70670;52.476;13.334;2023-06-22T06:10:05;12.43;;;6.72;;
58820;SDS011;70670;52.476;13.334;2023-06-22T06:12:31;11.18;;;6.75;;
58820;SDS011;70670;52.476;13.334;2023-06-22T06:14:58;23.00;;;8.45;;
58820;SDS011;70670;52.476;13.334;2023-06-22T06:17:23;17.77;;;7.57;;
58820;SDS011;70670;52.476;13.334;2023-06-22T06:19:49;20.73;;;7.78;;
58820;SDS011;70670;52.476;13.334;2023-06-22T06:22:14;7.65;;;6.55;;
58820;SDS011;70670;52.476;13.334;2023-06-22T06:24:40;11.07;;;7.25;;
58820;SDS011;70670;52.476;13.334;2023-06-22T06:27:06;12.15;;;7.20;;
58820;SDS011;70670;52.476;13.334;2023-06-22T06:29:32;9.55;;;6.75;;
58820;SDS011;70670;52.476;13.334;2023-06-22T06:31:57;13.27;;;7.03;;
58820;SDS011;70670;52.476;13.334;2023-06-22T06:34:23;11.27;;;6.55;;
58820;SDS011;70670;52.476;13.334;2023-06-22T06:36:49;9.05;;;6.65;;
58820;SDS011;70670;52.476;13.334;2023-06-22T06:39:14;16.75;;;6.65;;
58820;SDS011;70670;52.476;13.334;2023-06-22T06:41:41;9.15;;;5.88;;
58820;SDS011;70670;52.476;13.334;2023-06-22T06:44:07;12.13;;;6.50;;
58820;SDS011;70670;52.476;13.334;2023-06-22T06:46:33;13.18;;;5.88;;
58820;SDS011;70670;52.476;13.334;2023-06-22T06:48:58;12.02;;;5.20;;
58820;SDS011;70670;52.476;13.334;2023-06-22T06:51:24;11.80;;;5.25;;
58820;SDS011;70670;52.476;13.334;2023-06-22T06:53:50;7.15;;;4.82;;
58820;SDS011;70670;52.476;13.334;2023-06-22T06:56:15;11.70;;;4.57;;
58820;SDS011;70670;52.476;13.334;2023-06-22T06:58:41;4.70;;;4.05;;
58820;SDS011;70670;52.476;13.334;2023-06-22T07:01:13;6.63;;;4.18;;
58820;SDS011;70670;52.476;13.334;2023-06-22T07:03:39;6.60;;;4.07;;
58820;SDS011;70670;52.476;13.334;2023-06-22T07:06:04;9.98;;;4.13;;
58820;SDS011;70670;52.476;13.334;2023-06-22T07:08:30;9.90;;;4.30;;
58820;SDS011;70670;52.476;13.334;2023-06-22T07:10:56;7.60;;;4.10;;
58820;SDS011;70670;52.476;13.334;2023-06-22T07:13:21;14.50;;;4.35;;
58820;SDS011;70670;52.476;13.334;2023-06-22T07:15:47;6.75;;;3.58;;
58820;SDS011;70670;52.476;13.334;2023-06-22T07:18:12;13.63;;;4.43;;
58820;SDS011;70670;52.476;13.334;2023-06-22T07:20:38;8.13;;;4.38;;
58820;SDS011;70670;52.476;13.334;2023-06-22T07:23:04;9.90;;;4.15;;
58820;SDS011;70670;52.476;13.334;2023-06-22T07:25:30;9.02;;;3.30;;
58820;SDS011;70670;52.476;13.334;2023-06-22T07:27:57;12.20;;;3.80;;
58820;SDS011;70670;52.476;13.334;2023-06-22T07:30:24;4.90;;;3.42;;
58820;SDS011;70670;52.476;13.334;2023-06-22T07:32:49;6.40;;;3.78;;
58820;SDS011;70670;52.476;13.334;2023-06-22T07:35:15;4.95;;;2.95;;
58820;SDS011;70670;52.476;13.334;2023-06-22T07:37:42;8.63;;;2.83;;
58820;SDS011;70670;52.476;13.334;2023-06-22T07:40:07;6.78;;;2.70;;
58820;SDS011;70670;52.476;13.334;2023-06-22T07:42:34;10.70;;;3.40;;
58820;SDS011;70670;52.476;13.334;2023-06-22T07:44:59;10.38;;;2.95;;
58820;SDS011;70670;52.476;13.334;2023-06-22T07:47:25;9.00;;;3.55;;
58820;SDS011;70670;52.476;13.334;2023-06-22T07:49:53;8.63;;;3.30;;
58820;SDS011;70670;52.476;13.334;2023-06-22T07:52:24;9.55;;;3.30;;
58820;SDS011;70670;52.476;13.334;2023-06-22T07:54:50;9.75;;;2.92;;
58820;SDS011;70670;52.476;13.334;2023-06-22T07:57:16;13.50;;;3.72;;
58820;SDS011;70670;52.476;13.334;2023-06-22T07:59:42;9.50;;;3.25;;
58820;SDS011;70670;52.476;13.334;2023-06-22T08:02:07;6.78;;;3.53;;
58820;SDS011;70670;52.476;13.334;2023-06-22T08:04:34;6.07;;;2.88;;
58820;SDS011;70670;52.476;13.334;2023-06-22T08:07:00;6.93;;;2.75;;
58820;SDS011;70670;52.476;13.334;2023-06-22T08:09:30;5.43;;;2.78;;
58820;SDS011;70670;52.476;13.334;2023-06-22T08:11:57;6.15;;;3.33;;
58820;SDS011;70670;52.476;13.334;2023-06-22T08:14:23;9.93;;;4.75;;
58820;SDS011;70670;52.476;13.334;2023-06-22T08:16:50;19.00;;;6.78;;
58820;SDS011;70670;52.476;13.334;2023-06-22T08:19:16;8.82;;;4.22;;
58820;SDS011;70670;52.476;13.334;2023-06-22T08:21:42;10.98;;;3.60;;
58820;SDS011;70670;52.476;13.334;2023-06-22T08:24:08;9.13;;;3.25;;
58820;SDS011;70670;52.476;13.334;2023-06-22T08:26:33;10.88;;;4.18;;
58820;SDS011;70670;52.476;13.334;2023-06-22T08:29:02;8.80;;;3.30;;
58820;SDS011;70670;52.476;13.334;2023-06-22T08:31:28;21.38;;;4.00;;
58820;SDS011;70670;52.476;13.334;2023-06-22T08:33:54;7.82;;;3.53;;
58820;SDS011;70670;52.476;13.334;2023-06-22T08:36:19;9.60;;;3.63;;
58820;SDS011;70670;52.476;13.334;2023-06-22T08:38:45;9.73;;;3.13;;
58820;SDS011;70670;52.476;13.334;2023-06-22T08:41:17;4.07;;;3.17;;
58820;SDS011;70670;52.476;13.334;2023-06-22T08:43:43;6.78;;;3.42;;
58820;SDS011;70670;52.476;13.334;2023-06-22T08:46:13;3.70;;;2.97;;
58820;SDS011;70670;52.476;13.334;2023-06-22T08:48:39;7.55;;;3.47;;
58820;SDS011;70670;52.476;13.334;2023-06-22T08:51:05;6.63;;;3.10;;
58820;SDS011;70670;52.476;13.334;2023-06-22T08:53:30;11.50;;;3.13;;
58820;SDS011;70670;52.476;13.334;2023-06-22T08:55:56;7.18;;;4.32;;
58820;SDS011;70670;52.476;13.334;2023-06-22T08:58:21;5.50;;;2.90;;
58820;SDS011;70670;52.476;13.334;2023-06-22T09:00:49;8.60;;;3.05;;
58820;SDS011;70670;52.476;13.334;2023-06-22T09:03:16;2.70;;;2.50;;
58820;SDS011;70670;52.476;13.334;2023-06-22T09:05:42;4.13;;;3.20;;
58820;SDS011;70670;52.476;13.334;2023-06-22T09:08:08;3.85;;;3.47;;
58820;SDS011;70670;52.476;13.334;2023-06-22T09:10:33;3.33;;;2.63;;
58820;SDS011;70670;52.476;13.334;2023-06-22T09:12:59;4.25;;;2.70;;
58820;SDS011;70670;52.476;13.334;2023-06-22T09:15:25;5.63;;;3.20;;
58820;SDS011;70670;52.476;13.334;2023-06-22T09:17:51;6.30;;;2.85;;
58820;SDS011;70670;52.476;13.334;2023-06-22T09:20:19;7.15;;;3.03;;
58820;SDS011;70670;52.476;13.334;2023-06-22T09:22:45;8.98;;;3.00;;
58820;SDS011;70670;52.476;13.334;2023-06-22T09:25:11;40.13;;;4.97;;
58820;SDS011;70670;52.476;13.334;2023-06-22T09:27:36;13.68;;;3.05;;
58820;SDS011;70670;52.476;13.334;2023-06-22T09:30:02;15.40;;;3.80;;
58820;SDS011;70670;52.476;13.334;2023-06-22T09:32:29;12.43;;;2.80;;
58820;SDS011;70670;52.476;13.334;2023-06-22T09:34:54;4.07;;;2.45;;
58820;SDS011;70670;52.476;13.334;2023-06-22T09:37:20;6.25;;;2.60;;
58820;SDS011;70670;52.476;13.334;2023-06-22T09:39:46;5.03;;;2.50;;
58820;SDS011;70670;52.476;13.334;2023-06-22T09:42:11;9.75;;;2.63;;
58820;SDS011;70670;52.476;13.334;2023-06-22T09:44:38;3.00;;;2.47;;
58820;SDS011;70670;52.476;13.334;2023-06-22T09:47:04;6.13;;;2.70;;
58820;SDS011;70670;52.476;13.334;2023-06-22T09:49:30;4.97;;;2.78;;
58820;SDS011;70670;52.476;13.334;2023-06-22T09:51:57;4.53;;;2.88;;
58820;SDS011;70670;52.476;13.334;2023-06-22T09:54:23;4.38;;;2.80;;
58820;SDS011;70670;52.476;13.334;2023-06-22T09:56:48;4.93;;;2.95;;
58820;SDS011;70670;52.476;13.334;2023-06-22T09:59:14;3.47;;;2.75;;
58820;SDS011;70670;52.476;13.334;2023-06-22T10:01:39;6.35;;;3.30;;
58820;SDS011;70670;52.476;13.334;2023-06-22T10:04:05;5.00;;;3.15;;
58820;SDS011;70670;52.476;13.334;2023-06-22T10:06:30;3.38;;;2.90;;
58820;SDS011;70670;52.476;13.334;2023-06-22T10:08:56;4.07;;;3.10;;
58820;SDS011;70670;52.476;13.334;2023-06-22T10:11:22;4.57;;;3.03;;
58820;SDS011;70670;52.476;13.334;2023-06-22T10:13:54;6.43;;;3.35;;
58820;SDS011;70670;52.476;13.334;2023-06-22T10:16:20;5.72;;;3.22;;
58820;SDS011;70670;52.476;13.334;2023-06-22T10:18:46;8.57;;;3.47;;
58820;SDS011;70670;52.476;13.334;2023-06-22T10:21:11;6.07;;;3.00;;
58820;SDS011;70670;52.476;13.334;2023-06-22T10:23:37;5.82;;;3.10;;
58820;SDS011;70670;52.476;13.334;2023-06-22T10:26:02;9.77;;;3.28;;
58820;SDS011;70670;52.476;13.334;2023-06-22T10:28:28;4.22;;;3.20;;
58820;SDS011;70670;52.476;13.334;2023-06-22T10:30:54;3.97;;;2.88;;
58820;SDS011;70670;52.476;13.334;2023-06-22T10:33:19;9.07;;;3.70;;
58820;SDS011;70670;52.476;13.334;2023-06-22T10:35:45;5.63;;;2.97;;
58820;SDS011;70670;52.476;13.334;2023-06-22T10:38:11;3.72;;;2.92;;
58820;SDS011;70670;52.476;13.334;2023-06-22T10:40:37;7.30;;;3.13;;
58820;SDS011;70670;52.476;13.334;2023-06-22T10:43:04;10.57;;;3.57;;
58820;SDS011;70670;52.476;13.334;2023-06-22T10:45:30;4.95;;;3.30;;
58820;SDS011;70670;52.476;13.334;2023-06-22T10:47:56;5.18;;;3.35;;
58820;SDS011;70670;52.476;13.334;2023-06-22T10:50:21;3.63;;;3.28;;
58820;SDS011;70670;52.476;13.334;2023-06-22T10:52:49;5.82;;;3.33;;
58820;SDS011;70670;52.476;13.334;2023-06-22T10:55:15;3.17;;;2.90;;
58820;SDS011;70670;52.476;13.334;2023-06-22T10:57:41;8.43;;;2.97;;
58820;SDS011;70670;52.476;13.334;2023-06-22T11:00:09;4.18;;;3.00;;
58820;SDS011;70670;52.476;13.334;2023-06-22T11:02:36;12.07;;;3.30;;
58820;SDS011;70670;52.476;13.334;2023-06-22T11:05:02;6.00;;;3.58;;
58820;SDS011;70670;52.476;13.334;2023-06-22T11:07:29;8.38;;;3.42;;
58820;SDS011;70670;52.476;13.334;2023-06-22T11:09:56;10.50;;;3.10;;
58820;SDS011;70670;52.476;13.334;2023-06-22T11:12:22;9.23;;;3.00;;
58820;SDS011;70670;52.476;13.334;2023-06-22T11:14:47;7.18;;;3.60;;
58820;SDS011;70670;52.476;13.334;2023-06-22T11:17:15;6.87;;;2.93;;
58820;SDS011;70670;52.476;13.334;2023-06-22T11:19:41;6.00;;;3.10;;
58820;SDS011;70670;52.476;13.334;2023-06-22T11:22:06;7.80;;;3.30;;
58820;SDS011;70670;52.476;13.334;2023-06-22T11:24:32;4.47;;;2.88;;
58820;SDS011;70670;52.476;13.334;2023-06-22T11:26:58;4.20;;;3.00;;
58820;SDS011;70670;52.476;13.334;2023-06-22T11:29:23;6.65;;;3.17;;
58820;SDS011;70670;52.476;13.334;2023-06-22T11:31:49;6.22;;;3.25;;
58820;SDS011;70670;52.476;13.334;2023-06-22T11:34:14;9.95;;;3.40;;
58820;SDS011;70670;52.476;13.334;2023-06-22T11:36:41;4.72;;;3.13;;
58820;SDS011;70670;52.476;13.334;2023-06-22T11:39:07;3.70;;;3.22;;
58820;SDS011;70670;52.476;13.334;2023-06-22T11:41:35;5.70;;;3.10;;
58820;SDS011;70670;52.476;13.334;2023-06-22T11:44:00;7.80;;;3.55;;
58820;SDS011;70670;52.476;13.334;2023-06-22T11:46:26;2.90;;;2.67;;
58820;SDS011;70670;52.476;13.334;2023-06-22T11:48:51;4.13;;;3.30;;
58820;SDS011;70670;52.476;13.334;2023-06-22T11:51:17;3.22;;;2.85;;
58820;SDS011;70670;52.476;13.334;2023-06-22T11:53:43;3.67;;;3.38;;
58820;SDS011;70670;52.476;13.334;2023-06-22T11:56:08;3.40;;;2.85;;
58820;SDS011;70670;52.476;13.334;2023-06-22T11:58:34;4.25;;;3.17;;
58820;SDS011;70670;52.476;13.334;2023-06-22T12:00:59;3.13;;;2.90;;
58820;SDS011;70670;52.476;13.334;2023-06-22T12:03:25;3.50;;;3.20;;
58820;SDS011;70670;52.476;13.334;2023-06-22T12:05:51;4.28;;;3.15;;
58820;SDS011;70670;52.476;13.334;2023-06-22T12:08:17;5.32;;;3.05;;
58820;SDS011;70670;52.476;13.334;2023-06-22T12:10:44;14.68;;;3.50;;
58820;SDS011;70670;52.476;13.334;2023-06-22T12:13:09;4.55;;;3.50;;
58820;SDS011;70670;52.476;13.334;2023-06-22T12:15:35;5.57;;;3.35;;
58820;SDS011;70670;52.476;13.334;2023-06-22T12:18:01;7.18;;;3.20;;
58820;SDS011;70670;52.476;13.334;2023-06-22T12:20:26;3.28;;;3.08;;
58820;SDS011;70670;52.476;13.334;2023-06-22T12:22:52;6.88;;;3.60;;
58820;SDS011;70670;52.476;13.334;2023-06-22T12:25:19;5.40;;;3.33;;
58820;SDS011;70670;52.476;13.334;2023-06-22T12:27:44;3.30;;;3.00;;
58820;SDS011;70670;52.476;13.334;2023-06-22T12:30:10;6.03;;;3.92;;
58820;SDS011;70670;52.476;13.334;2023-06-22T12:32:36;11.75;;;5.03;;
58820;SDS011;70670;52.476;13.334;2023-06-22T12:35:01;3.55;;;3.25;;
58820;SDS011;70670;52.476;13.334;2023-06-22T12:37:27;4.22;;;2.97;;
58820;SDS011;70670;52.476;13.334;2023-06-22T12:39:53;13.25;;;3.85;;
58820;SDS011;70670;52.476;13.334;2023-06-22T12:42:19;3.50;;;3.20;;
58820;SDS011;70670;52.476;13.334;2023-06-22T12:44:46;5.90;;;3.40;;
58820;SDS011;70670;52.476;13.334;2023-06-22T12:47:12;5.35;;;3.60;;
58820;SDS011;70670;52.476;13.334;2023-06-22T12:49:38;4.22;;;3.40;;
58820;SDS011;70670;52.476;13.334;2023-06-22T12:52:08;3.53;;;3.20;;
58820;SDS011;70670;52.476;13.334;2023-06-22T12:54:35;12.35;;;4.55;;
58820;SDS011;70670;52.476;13.334;2023-06-22T12:57:01;11.20;;;4.80;;
58820;SDS011;70670;52.476;13.334;2023-06-22T12:59:26;12.02;;;4.70;;
58820;SDS011;70670;52.476;13.334;2023-06-22T13:01:52;6.40;;;3.63;;
58820;SDS011;70670;52.476;13.334;2023-06-22T13:04:32;8.90;;;3.30;;
58820;SDS011;70670;52.476;13.334;2023-06-22T13:06:57;9.45;;;3.92;;
58820;SDS011;70670;52.476;13.334;2023-06-22T13:09:23;5.03;;;3.67;;
58820;SDS011;70670;52.476;13.334;2023-06-22T13:11:48;5.90;;;3.40;;
58820;SDS011;70670;52.476;13.334;2023-06-22T13:14:14;6.95;;;3.58;;
58820;SDS011;70670;52.476;13.334;2023-06-22T13:16:41;9.35;;;4.30;;
58820;SDS011;70670;52.476;13.334;2023-06-22T13:19:07;4.53;;;4.13;;
58820;SDS011;70670;52.476;13.334;2023-06-22T13:21:32;5.30;;;4.45;;
58820;SDS011;70670;52.476;13.334;2023-06-22T13:23:59;4.25;;;3.85;;
58820;SDS011;70670;52.476;13.334;2023-06-22T13:26:25;4.65;;;4.00;;
58820;SDS011;70670;52.476;13.334;2023-06-22T13:28:50;5.85;;;4.30;;
58820;SDS011;70670;52.476;13.334;2023-06-22T13:31:16;6.45;;;4.05;;
58820;SDS011;70670;52.476;13.334;2023-06-22T13:33:42;10.52;;;3.88;;
58820;SDS011;70670;52.476;13.334;2023-06-22T13:36:09;16.92;;;5.70;;
58820;SDS011;70670;52.476;13.334;2023-06-22T13:38:35;24.85;;;4.60;;
58820;SDS011;70670;52.476;13.334;2023-06-22T13:41:03;19.52;;;5.05;;
58820;SDS011;70670;52.476;13.334;2023-06-22T13:43:29;8.95;;;4.32;;
58820;SDS011;70670;52.476;13.334;2023-06-22T13:45:55;10.18;;;4.00;;
58820;SDS011;70670;52.476;13.334;2023-06-22T13:48:21;5.50;;;3.70;;
58820;SDS011;70670;52.476;13.334;2023-06-22T13:50:48;5.95;;;3.85;;
58820;SDS011;70670;52.476;13.334;2023-06-22T13:53:13;9.38;;;4.18;;
58820;SDS011;70670;52.476;13.334;2023-06-22T13:55:39;12.60;;;4.20;;
58820;SDS011;70670;52.476;13.334;2023-06-22T13:58:05;12.30;;;4.18;;
58820;SDS011;70670;52.476;13.334;2023-06-22T14:00:30;9.57;;;4.68;;
58820;SDS011;70670;52.476;13.334;2023-06-22T14:02:56;8.93;;;3.75;;
58820;SDS011;70670;52.476;13.334;2023-06-22T14:05:22;6.93;;;3.70;;
58820;SDS011;70670;52.476;13.334;2023-06-22T14:07:47;4.20;;;3.70;;
58820;SDS011;70670;52.476;13.334;2023-06-22T14:10:13;4.70;;;3.35;;
58820;SDS011;70670;52.476;13.334;2023-06-22T14:12:39;5.47;;;3.67;;
58820;SDS011;70670;52.476;13.334;2023-06-22T14:15:04;3.90;;;3.47;;
58820;SDS011;70670;52.476;13.334;2023-06-22T14:17:31;3.88;;;3.50;;
58820;SDS011;70670;52.476;13.334;2023-06-22T14:19:56;6.40;;;3.47;;
58820;SDS011;70670;52.476;13.334;2023-06-22T14:22:22;5.57;;;4.03;;
58820;SDS011;70670;52.476;13.334;2023-06-22T14:24:48;5.32;;;3.38;;
58820;SDS011;70670;52.476;13.334;2023-06-22T14:27:14;8.50;;;4.13;;
58820;SDS011;70670;52.476;13.334;2023-06-22T14:29:40;15.02;;;3.95;;
58820;SDS011;70670;52.476;13.334;2023-06-22T14:32:07;4.07;;;3.60;;
58820;SDS011;70670;52.476;13.334;2023-06-22T14:34:33;6.63;;;3.60;;